Wetterdaten: Woche 24.10.11 - 30.10.11 (KW43)
Datum Zeit Temperatur Luftfeuchte Luftdruck Niederschlag Windrichtung Sonnenschein Solar Wind
24.10.2011 00:00 2,3 C 97 % 1015,0 hPa 0,0 l/m N 0,00 h 0 W/m 1,5 km/h (1 Bft)
24.10.2011 01:00 2,3 C 97 % 1014,6 hPa 0,0 l/m N 0,00 h 0 W/m 0,5 km/h (0 Bft)
24.10.2011 02:00 2,4 C 97 % 1014,2 hPa 0,0 l/m N-NO 0,00 h 0 W/m 1,6 km/h (1 Bft)
24.10.2011 03:00 2,6 C 97 % 1013,7 hPa 0,0 l/m N 0,00 h 0 W/m 1,5 km/h (1 Bft)
24.10.2011 04:00 2,4 C 97 % 1013,1 hPa 0,0 l/m N 0,00 h 0 W/m 0,5 km/h (0 Bft)
24.10.2011 05:00 2,3 C 97 % 1012,6 hPa 0,0 l/m N-NO 0,00 h 0 W/m 2,5 km/h (1 Bft)
24.10.2011 06:00 2,3 C 98 % 1012,1 hPa 0,0 l/m N-NO 0,00 h 0 W/m 2,3 km/h (1 Bft)
24.10.2011 07:00 2,1 C 98 % 1011,9 hPa 0,0 l/m N 0,00 h 0 W/m 2,3 km/h (1 Bft)
24.10.2011 08:00 2,2 C 98 % 1012,1 hPa 0,2 l/m N-NO 0,00 h 14 W/m 4,0 km/h (1 Bft)
24.10.2011 09:00 2,3 C 98 % 1012,1 hPa 0,0 l/m NO 0,00 h 59 W/m 6,4 km/h (2 Bft)
24.10.2011 10:00 2,7 C 96 % 1011,9 hPa 0,0 l/m NO 0,42 h 228 W/m 7,2 km/h (2 Bft)
24.10.2011 11:00 4,8 C 90 % 1011,6 hPa 0,0 l/m NO 1,00 h 432 W/m 7,1 km/h (2 Bft)
24.10.2011 12:00 7,4 C 82 % 1010,8 hPa 0,0 l/m O-NO 1,00 h 494 W/m 11,0 km/h (2 Bft)
24.10.2011 13:00 9,3 C 75 % 1009,8 hPa 0,0 l/m O 1,00 h 507 W/m 10,9 km/h (2 Bft)
24.10.2011 14:00 10,1 C 72 % 1008,9 hPa 0,0 l/m NO 1,00 h 463 W/m 12,8 km/h (3 Bft)
24.10.2011 15:00 10,7 C 71 % 1008,4 hPa 0,0 l/m NO 1,00 h 369 W/m 12,1 km/h (2 Bft)
24.10.2011 16:00 10,9 C 68 % 1007,9 hPa 0,0 l/m O-NO 1,00 h 236 W/m 13,0 km/h (3 Bft)
24.10.2011 17:00 10,6 C 70 % 1007,4 hPa 0,0 l/m O 0,67 h 70 W/m 10,8 km/h (2 Bft)
24.10.2011 18:00 9,5 C 74 % 1007,2 hPa 0,0 l/m O-NO 0,08 h 8 W/m 6,0 km/h (2 Bft)
24.10.2011 19:00 7,9 C 77 % 1007,3 hPa 0,0 l/m NO 0,00 h 0 W/m 6,4 km/h (2 Bft)
24.10.2011 20:00 6,4 C 82 % 1007,3 hPa 0,0 l/m N-NO 0,00 h 0 W/m 5,6 km/h (1 Bft)
24.10.2011 21:00 5,7 C 85 % 1007,0 hPa 0,0 l/m N-NO 0,00 h 0 W/m 5,1 km/h (1 Bft)
24.10.2011 22:00 5,5 C 86 % 1007,1 hPa 0,0 l/m N 0,00 h 0 W/m 7,6 km/h (2 Bft)
24.10.2011 23:00 5,3 C 86 % 1006,9 hPa 0,0 l/m N 0,00 h 0 W/m 3,9 km/h (1 Bft)
25.10.2011 00:00 5,1 C 89 % 1007,1 hPa 0,0 l/m N 0,00 h 0 W/m 4,5 km/h (1 Bft)
25.10.2011 01:00 5,2 C 90 % 1006,7 hPa 0,2 l/m N-NO 0,00 h 0 W/m 5,9 km/h (2 Bft)
25.10.2011 02:00 5,1 C 92 % 1006,4 hPa 0,0 l/m N-NO 0,00 h 0 W/m 4,9 km/h (1 Bft)
25.10.2011 03:00 4,8 C 93 % 1006,1 hPa 0,0 l/m N-NO 0,00 h 0 W/m 6,1 km/h (2 Bft)
25.10.2011 04:00 4,5 C 93 % 1005,4 hPa 0,0 l/m N-NO 0,00 h 0 W/m 6,7 km/h (2 Bft)
25.10.2011 05:00 4,0 C 94 % 1005,2 hPa 0,0 l/m N-NO 0,00 h 0 W/m 8,2 km/h (2 Bft)
25.10.2011 06:00 3,9 C 95 % 1004,9 hPa 0,0 l/m N-NO 0,00 h 0 W/m 7,1 km/h (2 Bft)
25.10.2011 07:00 3,8 C 94 % 1004,4 hPa 0,0 l/m NO 0,00 h 0 W/m 8,4 km/h (2 Bft)
25.10.2011 08:00 3,8 C 95 % 1004,0 hPa 0,0 l/m N-NO 0,00 h 10 W/m 9,3 km/h (2 Bft)
25.10.2011 09:00 3,9 C 94 % 1003,8 hPa 0,0 l/m N-NO 0,00 h 44 W/m 9,3 km/h (2 Bft)
25.10.2011 10:00 4,8 C 92 % 1003,7 hPa 0,0 l/m NO 0,00 h 87 W/m 8,6 km/h (2 Bft)
25.10.2011 11:00 5,6 C 89 % 1003,5 hPa 0,0 l/m NO 0,00 h 94 W/m 9,9 km/h (2 Bft)
25.10.2011 12:00 6,7 C 86 % 1003,3 hPa 0,0 l/m NO 0,08 h 136 W/m 9,5 km/h (2 Bft)
25.10.2011 13:00 7,2 C 86 % 1003,3 hPa 0,0 l/m NO 0,00 h 105 W/m 7,4 km/h (2 Bft)
25.10.2011 14:00 8,1 C 84 % 1002,7 hPa 0,0 l/m NO 0,00 h 131 W/m 5,9 km/h (2 Bft)
25.10.2011 15:00 8,7 C 83 % 1002,6 hPa 0,0 l/m N-NO 0,00 h 90 W/m 8,2 km/h (2 Bft)
25.10.2011 16:00 8,5 C 84 % 1002,6 hPa 0,0 l/m N-NO 0,00 h 45 W/m 7,1 km/h (2 Bft)
25.10.2011 17:00 8,4 C 86 % 1003,1 hPa 0,0 l/m N-NO 0,00 h 17 W/m 5,5 km/h (1 Bft)
25.10.2011 18:00 8,0 C 87 % 1003,5 hPa 0,0 l/m N-NO 0,00 h 5 W/m 5,1 km/h (1 Bft)
25.10.2011 19:00 7,4 C 89 % 1004,1 hPa 0,0 l/m N-NO 0,00 h 0 W/m 6,7 km/h (2 Bft)
25.10.2011 20:00 7,1 C 91 % 1004,7 hPa 0,0 l/m NW 0,00 h 0 W/m 2,4 km/h (1 Bft)
25.10.2011 21:00 6,9 C 92 % 1005,2 hPa 0,0 l/m NW 0,00 h 0 W/m 3,3 km/h (1 Bft)
25.10.2011 22:00 6,4 C 92 % 1005,8 hPa 0,0 l/m N 0,00 h 0 W/m 2,0 km/h (1 Bft)
25.10.2011 23:00 5,7 C 93 % 1007,0 hPa 0,0 l/m N 0,00 h 0 W/m 1,3 km/h (1 Bft)
26.10.2011 00:00 5,1 C 93 % 1007,8 hPa 0,0 l/m N 0,00 h 0 W/m 0,7 km/h (0 Bft)
26.10.2011 01:00 4,6 C 94 % 1008,9 hPa 0,0 l/m N 0,00 h 0 W/m 1,9 km/h (1 Bft)
26.10.2011 02:00 4,6 C 95 % 1010,0 hPa 0,0 l/m N 0,00 h 0 W/m 1,5 km/h (1 Bft)
26.10.2011 03:00 4,6 C 96 % 1010,8 hPa 0,0 l/m NW 0,00 h 0 W/m 2,0 km/h (1 Bft)
26.10.2011 04:00 5,7 C 97 % 1011,4 hPa 0,0 l/m SW 0,00 h 0 W/m 10,6 km/h (2 Bft)
26.10.2011 05:00 6,5 C 97 % 1011,9 hPa 0,0 l/m SW 0,00 h 0 W/m 4,8 km/h (1 Bft)
26.10.2011 06:00 6,5 C 97 % 1012,3 hPa 0,0 l/m SW 0,00 h 0 W/m 2,5 km/h (1 Bft)
26.10.2011 07:00 6,5 C 97 % 1012,9 hPa 0,0 l/m SW 0,00 h 0 W/m 4,1 km/h (1 Bft)
26.10.2011 08:00 6,5 C 97 % 1013,7 hPa 0,0 l/m N 0,00 h 13 W/m 0,5 km/h (0 Bft)
26.10.2011 09:00 6,9 C 98 % 1014,6 hPa 0,0 l/m N 0,00 h 44 W/m 1,1 km/h (0 Bft)
26.10.2011 10:00 8,1 C 96 % 1015,1 hPa 0,0 l/m N 0,00 h 66 W/m 0,9 km/h (0 Bft)
26.10.2011 11:00 9,5 C 90 % 1015,6 hPa 0,0 l/m SW 0,00 h 122 W/m 3,1 km/h (1 Bft)
26.10.2011 12:00 10,5 C 83 % 1015,6 hPa 0,0 l/m SW 0,17 h 216 W/m 3,6 km/h (1 Bft)
26.10.2011 13:00 11,5 C 78 % 1015,1 hPa 0,0 l/m SW 0,00 h 229 W/m 2,7 km/h (1 Bft)
26.10.2011 14:00 12,5 C 69 % 1014,9 hPa 0,0 l/m S 0,08 h 218 W/m 5,2 km/h (1 Bft)
26.10.2011 15:00 12,7 C 69 % 1014,9 hPa 0,0 l/m O-SO 0,33 h 206 W/m 6,4 km/h (2 Bft)
26.10.2011 16:00 12,5 C 70 % 1015,0 hPa 0,0 l/m O-SO 0,83 h 194 W/m 8,0 km/h (2 Bft)
26.10.2011 17:00 12,1 C 69 % 1015,1 hPa 0,0 l/m O 0,17 h 46 W/m 6,1 km/h (2 Bft)
26.10.2011 18:00 10,8 C 75 % 1015,2 hPa 0,0 l/m N 0,08 h 8 W/m 1,6 km/h (1 Bft)
26.10.2011 19:00 8,6 C 82 % 1015,4 hPa 0,0 l/m N 0,00 h 0 W/m 1,1 km/h (0 Bft)
26.10.2011 20:00 7,2 C 87 % 1015,5 hPa 0,0 l/m O-NO 0,00 h 0 W/m 2,8 km/h (1 Bft)
26.10.2011 21:00 6,7 C 92 % 1015,8 hPa 0,0 l/m O-NO 0,00 h 0 W/m 4,7 km/h (1 Bft)
26.10.2011 22:00 6,7 C 94 % 1015,9 hPa 0,0 l/m N-NO 0,00 h 0 W/m 4,1 km/h (1 Bft)
26.10.2011 23:00 7,4 C 97 % 1015,9 hPa 0,0 l/m N 0,00 h 0 W/m 0,9 km/h (0 Bft)
27.10.2011 00:00 7,5 C 96 % 1015,6 hPa 0,0 l/m N-NO 0,00 h 0 W/m 2,5 km/h (1 Bft)
27.10.2011 01:00 7,3 C 96 % 1015,5 hPa 0,0 l/m N 0,00 h 0 W/m 0,8 km/h (0 Bft)
27.10.2011 02:00 6,5 C 95 % 1015,3 hPa 0,0 l/m N 0,00 h 0 W/m 1,9 km/h (1 Bft)
27.10.2011 03:00 6,5 C 96 % 1015,2 hPa 0,0 l/m NO 0,00 h 0 W/m 3,7 km/h (1 Bft)
27.10.2011 04:00 7,4 C 97 % 1014,7 hPa 0,0 l/m O-NO 0,00 h 0 W/m 6,7 km/h (2 Bft)
27.10.2011 05:00 7,6 C 97 % 1014,4 hPa 0,0 l/m O-SO 0,00 h 0 W/m 6,0 km/h (2 Bft)
27.10.2011 06:00 7,6 C 96 % 1014,4 hPa 0,0 l/m O-NO 0,00 h 0 W/m 7,8 km/h (2 Bft)
27.10.2011 07:00 7,7 C 96 % 1014,1 hPa 0,0 l/m O 0,00 h 0 W/m 8,0 km/h (2 Bft)
27.10.2011 08:00 7,6 C 96 % 1014,2 hPa 0,0 l/m O-NO 0,00 h 10 W/m 9,1 km/h (2 Bft)
27.10.2011 09:00 7,6 C 96 % 1014,6 hPa 0,0 l/m O-NO 0,00 h 20 W/m 7,2 km/h (2 Bft)
27.10.2011 10:00 7,9 C 95 % 1014,5 hPa 0,0 l/m O-NO 0,00 h 52 W/m 7,1 km/h (2 Bft)
27.10.2011 11:00 8,3 C 92 % 1014,6 hPa 0,0 l/m O-NO 0,00 h 81 W/m 11,4 km/h (2 Bft)
27.10.2011 12:00 8,7 C 90 % 1014,3 hPa 0,0 l/m O-NO 0,00 h 102 W/m 13,6 km/h (3 Bft)
27.10.2011 13:00 9,3 C 87 % 1013,9 hPa 0,0 l/m NO 0,00 h 182 W/m 12,4 km/h (3 Bft)
27.10.2011 14:00 10,6 C 83 % 1013,8 hPa 0,0 l/m NO 0,58 h 349 W/m 10,4 km/h (2 Bft)
27.10.2011 15:00 10,7 C 82 % 1013,8 hPa 0,0 l/m O-NO 0,42 h 224 W/m 8,3 km/h (2 Bft)
27.10.2011 16:00 10,3 C 83 % 1014,5 hPa 0,0 l/m O-NO 0,08 h 97 W/m 6,7 km/h (2 Bft)
27.10.2011 17:00 10,1 C 84 % 1015,1 hPa 0,0 l/m O-NO 0,17 h 44 W/m 2,4 km/h (1 Bft)
27.10.2011 18:00 8,9 C 85 % 1015,5 hPa 0,0 l/m N 0,08 h 7 W/m 1,1 km/h (0 Bft)
27.10.2011 19:00 7,3 C 88 % 1016,0 hPa 0,0 l/m N 0,00 h 0 W/m 1,6 km/h (1 Bft)
27.10.2011 20:00 6,1 C 91 % 1016,7 hPa 0,0 l/m N 0,00 h 0 W/m 1,5 km/h (1 Bft)
27.10.2011 21:00 5,2 C 91 % 1017,1 hPa 0,0 l/m N 0,00 h 0 W/m 0,3 km/h (0 Bft)
27.10.2011 22:00 4,3 C 92 % 1017,7 hPa 0,0 l/m N 0,00 h 0 W/m 1,3 km/h (1 Bft)
27.10.2011 23:00 3,8 C 93 % 1018,2 hPa 0,0 l/m N 0,00 h 0 W/m 0,1 km/h (0 Bft)
28.10.2011 00:00 3,0 C 93 % 1018,6 hPa 0,0 l/m N 0,00 h 0 W/m 0,1 km/h (0 Bft)
28.10.2011 01:00 2,4 C 94 % 1019,3 hPa 0,0 l/m N 0,00 h 0 W/m 0,1 km/h (0 Bft)
28.10.2011 02:00 2,0 C 94 % 1019,9 hPa 0,0 l/m N 0,00 h 0 W/m 0,0 km/h (0 Bft)
28.10.2011 03:00 2,1 C 96 % 1020,7 hPa 0,0 l/m N 0,00 h 0 W/m 0,4 km/h (0 Bft)
28.10.2011 04:00 2,5 C 97 % 1021,0 hPa 0,2 l/m N 0,00 h 0 W/m 0,8 km/h (0 Bft)
28.10.2011 05:00 2,8 C 97 % 1021,4 hPa 0,0 l/m N 0,00 h 0 W/m 1,3 km/h (1 Bft)
28.10.2011 06:00 2,6 C 97 % 1022,1 hPa 0,0 l/m N 0,00 h 0 W/m 0,0 km/h (0 Bft)
28.10.2011 07:00 2,3 C 97 % 1022,8 hPa 0,0 l/m N 0,00 h 0 W/m 1,7 km/h (1 Bft)
28.10.2011 08:00 1,8 C 97 % 1023,4 hPa 0,0 l/m N 0,00 h 18 W/m 0,7 km/h (0 Bft)
28.10.2011 09:00 2,1 C 98 % 1024,4 hPa 0,0 l/m N 0,00 h 66 W/m 0,5 km/h (0 Bft)
28.10.2011 10:00 3,2 C 98 % 1024,9 hPa 0,0 l/m N 0,17 h 148 W/m 1,1 km/h (0 Bft)
28.10.2011 11:00 5,5 C 99 % 1025,2 hPa 0,0 l/m N 0,75 h 282 W/m 0,9 km/h (0 Bft)
28.10.2011 12:00 9,9 C 90 % 1025,2 hPa 0,0 l/m O-NO 1,00 h 426 W/m 4,8 km/h (1 Bft)
28.10.2011 13:00 12,8 C 78 % 1024,8 hPa 0,0 l/m O-NO 1,00 h 459 W/m 5,1 km/h (1 Bft)
28.10.2011 14:00 15,4 C 68 % 1024,4 hPa 0,0 l/m NO 1,00 h 402 W/m 7,5 km/h (2 Bft)
28.10.2011 15:00 16,3 C 65 % 1024,5 hPa 0,0 l/m NO 0,75 h 280 W/m 9,8 km/h (2 Bft)
28.10.2011 16:00 15,5 C 69 % 1024,9 hPa 0,0 l/m NO 0,75 h 168 W/m 8,4 km/h (2 Bft)
28.10.2011 17:00 14,9 C 72 % 1025,1 hPa 0,0 l/m NO 0,42 h 52 W/m 5,9 km/h (2 Bft)
28.10.2011 18:00 13,1 C 76 % 1025,4 hPa 0,0 l/m NO 0,00 h 7 W/m 4,4 km/h (1 Bft)
28.10.2011 19:00 10,8 C 82 % 1026,0 hPa 0,0 l/m NO 0,00 h 0 W/m 3,5 km/h (1 Bft)
28.10.2011 20:00 9,4 C 87 % 1026,2 hPa 0,0 l/m NO 0,00 h 0 W/m 3,6 km/h (1 Bft)
28.10.2011 21:00 8,5 C 91 % 1026,3 hPa 0,0 l/m NO 0,00 h 0 W/m 5,8 km/h (1 Bft)
28.10.2011 22:00 7,9 C 92 % 1026,2 hPa 0,0 l/m N 0,00 h 0 W/m 2,4 km/h (1 Bft)
28.10.2011 23:00 7,1 C 92 % 1026,2 hPa 0,0 l/m N-NW 0,00 h 0 W/m 6,2 km/h (2 Bft)
29.10.2011 00:00 7,2 C 95 % 1026,4 hPa 0,0 l/m N-NW 0,00 h 0 W/m 9,4 km/h (2 Bft)
29.10.2011 01:00 6,9 C 96 % 1026,4 hPa 0,0 l/m N-NW 0,00 h 0 W/m 3,3 km/h (1 Bft)
29.10.2011 02:00 6,3 C 96 % 1026,3 hPa 0,0 l/m N 0,00 h 0 W/m 7,0 km/h (2 Bft)
29.10.2011 03:00 6,0 C 96 % 1026,0 hPa 0,0 l/m N 0,00 h 0 W/m 2,5 km/h (1 Bft)
29.10.2011 04:00 5,3 C 96 % 1025,6 hPa 0,0 l/m N 0,00 h 0 W/m 4,9 km/h (1 Bft)
29.10.2011 05:00 5,2 C 97 % 1025,6 hPa 0,2 l/m N 0,00 h 0 W/m 6,8 km/h (2 Bft)
29.10.2011 06:00 5,2 C 97 % 1025,2 hPa 0,0 l/m N 0,00 h 0 W/m 3,3 km/h (1 Bft)
29.10.2011 07:00 5,0 C 97 % 1025,0 hPa 0,0 l/m N 0,00 h 0 W/m 4,1 km/h (1 Bft)
29.10.2011 08:00 4,7 C 98 % 1025,3 hPa 0,0 l/m N 0,00 h 16 W/m 4,5 km/h (1 Bft)
29.10.2011 09:00 4,7 C 98 % 1025,5 hPa 0,0 l/m N 0,00 h 50 W/m 4,0 km/h (1 Bft)
29.10.2011 10:00 5,0 C 98 % 1025,3 hPa 0,0 l/m N 0,00 h 90 W/m 2,4 km/h (1 Bft)
29.10.2011 11:00 5,9 C 99 % 1025,3 hPa 0,0 l/m N 0,00 h 136 W/m 3,9 km/h (1 Bft)
29.10.2011 12:00 7,2 C 98 % 1025,1 hPa 0,0 l/m NO 0,00 h 162 W/m 4,3 km/h (1 Bft)
29.10.2011 13:00 8,3 C 95 % 1024,4 hPa 0,0 l/m O-NO 0,67 h 303 W/m 4,9 km/h (1 Bft)
29.10.2011 14:00 10,5 C 85 % 1023,8 hPa 0,0 l/m O-NO 1,00 h 429 W/m 5,9 km/h (2 Bft)
29.10.2011 15:00 12,3 C 79 % 1023,5 hPa 0,0 l/m NO 1,00 h 320 W/m 8,2 km/h (2 Bft)
29.10.2011 16:00 11,7 C 83 % 1023,5 hPa 0,0 l/m N-NO 0,92 h 190 W/m 7,5 km/h (2 Bft)
29.10.2011 17:00 11,0 C 86 % 1023,6 hPa 0,0 l/m N-NO 0,50 h 50 W/m 3,6 km/h (1 Bft)
29.10.2011 18:00 9,8 C 86 % 1023,9 hPa 0,0 l/m N 0,00 h 7 W/m 1,1 km/h (0 Bft)
29.10.2011 19:00 8,0 C 88 % 1024,1 hPa 0,0 l/m N 0,00 h 0 W/m 0,8 km/h (0 Bft)
29.10.2011 20:00 6,8 C 90 % 1024,3 hPa 0,0 l/m N 0,00 h 0 W/m 2,1 km/h (1 Bft)
29.10.2011 21:00 6,1 C 93 % 1024,3 hPa 0,0 l/m N 0,00 h 0 W/m 0,9 km/h (0 Bft)
29.10.2011 22:00 5,3 C 92 % 1024,1 hPa 0,0 l/m N 0,00 h 0 W/m 0,0 km/h (0 Bft)
29.10.2011 23:00 4,4 C 93 % 1023,9 hPa 0,0 l/m N 0,00 h 0 W/m 0,0 km/h (0 Bft)
30.10.2011 00:00 3,8 C 94 % 1023,8 hPa 0,0 l/m N 0,00 h 0 W/m 0,1 km/h (0 Bft)
30.10.2011 01:00 3,6 C 95 % 1023,5 hPa 0,0 l/m N 0,00 h 0 W/m 0,0 km/h (0 Bft)
30.10.2011 02:00 3,7 C 96 % 1023,6 hPa 0,0 l/m N 0,00 h 0 W/m 0,6 km/h (0 Bft)
30.10.2011 03:00 4,0 C 97 % 1023,4 hPa 0,0 l/m N 0,00 h 0 W/m 0,9 km/h (0 Bft)
30.10.2011 04:00 4,2 C 97 % 1023,4 hPa 0,0 l/m N 0,00 h 0 W/m 0,0 km/h (0 Bft)
30.10.2011 05:00 4,2 C 97 % 1023,5 hPa 0,0 l/m N 0,00 h 0 W/m 0,0 km/h (0 Bft)
30.10.2011 06:00 4,3 C 97 % 1023,5 hPa 0,0 l/m N 0,00 h 0 W/m 0,4 km/h (0 Bft)
30.10.2011 07:00 4,4 C 98 % 1023,8 hPa 0,0 l/m N 0,00 h 13 W/m 0,0 km/h (0 Bft)
30.10.2011 08:00 4,8 C 98 % 1024,1 hPa 0,0 l/m N 0,00 h 57 W/m 0,1 km/h (0 Bft)
30.10.2011 09:00 6,1 C 99 % 1024,1 hPa 0,0 l/m N-NO 0,00 h 123 W/m 2,7 km/h (1 Bft)
30.10.2011 10:00 8,4 C 98 % 1024,1 hPa 0,0 l/m N-NO 0,83 h 344 W/m 3,6 km/h (1 Bft)
30.10.2011 11:00 11,3 C 86 % 1024,0 hPa 0,0 l/m N 1,00 h 366 W/m 5,6 km/h (1 Bft)
30.10.2011 12:00 13,1 C 80 % 1023,5 hPa 0,0 l/m N 1,00 h 379 W/m 4,3 km/h (1 Bft)
30.10.2011 13:00 14,5 C 74 % 1022,7 hPa 0,0 l/m N-NO 1,00 h 355 W/m 5,1 km/h (1 Bft)
30.10.2011 14:00 15,1 C 70 % 1022,3 hPa 0,0 l/m N-NO 1,00 h 302 W/m 4,8 km/h (1 Bft)
30.10.2011 15:00 15,0 C 66 % 1021,9 hPa 0,0 l/m N-NO 0,58 h 155 W/m 4,7 km/h (1 Bft)
30.10.2011 16:00 14,2 C 75 % 1022,0 hPa 0,0 l/m N 0,33 h 43 W/m 0,5 km/h (0 Bft)
30.10.2011 17:00 11,8 C 81 % 1021,9 hPa 0,0 l/m N 0,00 h 6 W/m 0,1 km/h (0 Bft)
30.10.2011 18:00 9,6 C 86 % 1022,2 hPa 0,0 l/m N-NO 0,00 h 0 W/m 1,3 km/h (1 Bft)
30.10.2011 19:00 8,7 C 91 % 1022,3 hPa 0,0 l/m N-NO 0,00 h 0 W/m 4,4 km/h (1 Bft)
30.10.2011 20:00 8,1 C 92 % 1022,2 hPa 0,0 l/m N 0,00 h 0 W/m 3,5 km/h (1 Bft)
30.10.2011 21:00 7,4 C 93 % 1022,2 hPa 0,0 l/m N 0,00 h 0 W/m 3,2 km/h (1 Bft)
30.10.2011 22:00 6,9 C 94 % 1021,8 hPa 0,0 l/m N-NO 0,00 h 0 W/m 3,5 km/h (1 Bft)
30.10.2011 23:00 6,4 C 95 % 1021,5 hPa 0,0 l/m N-NO 0,00 h 0 W/m 6,7 km/h (2 Bft)
Min-Datum _ 28.10.11 28.10.11 25.10.11 - - - - 24.10.11
_ Min-Zeit 08:35 15:40 14:40 - - - - 00:20
Minimum _ 1,7 C 63 % 1002,4 hPa - - - - 0,0 km/h (0 Bft)
Max-Datum _ 28.10.11 26.10.11 29.10.11 24.10.11 - 24.10.11 27.10.11 27.10.11
_ Max-Zeit 15:25 23:35 00:45 08:35 - 10:35 14:30 12:20
Maximum _ 16,4 C 100 % 1026,5 hPa 0,2 l/m - 0,08 h 566 W/m 19,3 km/h
O-SO (3 Bft)
Durchschnitt _ 7,1 C 90 % 1016,5 hPa #0,8 l/m NO #25:55 h 161 W/m 4,4 km/h (1 Bft)